sensor_id;sensor_type;location;lat;lon;timestamp;pressure;altitude;pressure_sealevel;temperature;humidity
53514;BME280;39768;54.148;12.174;2023-08-06T00:00:31;100802.66;;;15.73;79.98
53514;BME280;39768;54.148;12.174;2023-08-06T00:04:33;100798.97;;;16.07;78.30
53514;BME280;39768;54.148;12.174;2023-08-06T00:08:35;100803.88;;;16.32;77.41
53514;BME280;39768;54.148;12.174;2023-08-06T00:12:36;100812.59;;;15.88;79.72
53514;BME280;39768;54.148;12.174;2023-08-06T00:16:38;100811.31;;;16.11;78.60
53514;BME280;39768;54.148;12.174;2023-08-06T00:20:39;100817.69;;;15.61;79.35
53514;BME280;39768;54.148;12.174;2023-08-06T00:24:42;100820.25;;;15.47;81.09
53514;BME280;39768;54.148;12.174;2023-08-06T00:28:43;100818.13;;;15.36;82.25
53514;BME280;39768;54.148;12.174;2023-08-06T00:32:45;100821.22;;;15.46;82.46
53514;BME280;39768;54.148;12.174;2023-08-06T00:36:47;100817.41;;;15.33;84.54
53514;BME280;39768;54.148;12.174;2023-08-06T00:40:49;100818.41;;;14.79;88.30
53514;BME280;39768;54.148;12.174;2023-08-06T00:44:50;100799.72;;;15.10;86.21
53514;BME280;39768;54.148;12.174;2023-08-06T00:48:52;100798.50;;;14.64;87.67
53514;BME280;39768;54.148;12.174;2023-08-06T00:52:54;100799.16;;;15.21;84.18
53514;BME280;39768;54.148;12.174;2023-08-06T00:56:56;100785.03;;;14.64;92.23
53514;BME280;39768;54.148;12.174;2023-08-06T01:01:00;100784.56;;;15.25;86.63
53514;BME280;39768;54.148;12.174;2023-08-06T01:05:02;100787.97;;;15.46;86.78
53514;BME280;39768;54.148;12.174;2023-08-06T01:09:20;100783.38;;;15.13;88.01
53514;BME280;39768;54.148;12.174;2023-08-06T01:13:48;100772.91;;;13.82;99.40
53514;BME280;39768;54.148;12.174;2023-08-06T01:17:53;100765.19;;;14.12;100.00
53514;BME280;39768;54.148;12.174;2023-08-06T01:21:55;100766.94;;;14.13;99.74
53514;BME280;39768;54.148;12.174;2023-08-06T01:30:33;100759.81;;;14.12;100.00
53514;BME280;39768;54.148;12.174;2023-08-06T01:34:41;100756.19;;;13.94;100.00
53514;BME280;39768;54.148;12.174;2023-08-06T01:38:45;100751.66;;;13.76;100.00
53514;BME280;39768;54.148;12.174;2023-08-06T01:42:46;100742.69;;;13.56;100.00
53514;BME280;39768;54.148;12.174;2023-08-06T01:46:48;100741.38;;;13.66;100.00
53514;BME280;39768;54.148;12.174;2023-08-06T01:50:49;100738.09;;;13.97;100.00
53514;BME280;39768;54.148;12.174;2023-08-06T01:54:52;100732.03;;;14.11;100.00
53514;BME280;39768;54.148;12.174;2023-08-06T01:58:53;100724.78;;;13.76;100.00
53514;BME280;39768;54.148;12.174;2023-08-06T02:02:55;100729.13;;;13.59;100.00
53514;BME280;39768;54.148;12.174;2023-08-06T02:06:57;100711.72;;;13.68;100.00
53514;BME280;39768;54.148;12.174;2023-08-06T02:10:59;100705.81;;;13.60;100.00
53514;BME280;39768;54.148;12.174;2023-08-06T02:15:00;100704.41;;;13.89;100.00
53514;BME280;39768;54.148;12.174;2023-08-06T02:19:02;100706.09;;;13.73;100.00
53514;BME280;39768;54.148;12.174;2023-08-06T02:23:04;100705.13;;;13.36;100.00
53514;BME280;39768;54.148;12.174;2023-08-06T02:27:05;100716.38;;;13.44;100.00
53514;BME280;39768;54.148;12.174;2023-08-06T02:31:07;100708.16;;;13.28;100.00
53514;BME280;39768;54.148;12.174;2023-08-06T02:35:11;100711.72;;;13.29;100.00
53514;BME280;39768;54.148;12.174;2023-08-06T02:39:13;100707.13;;;13.31;100.00
53514;BME280;39768;54.148;12.174;2023-08-06T02:43:14;100710.41;;;13.19;100.00
53514;BME280;39768;54.148;12.174;2023-08-06T02:47:16;100713.59;;;12.88;100.00
53514;BME280;39768;54.148;12.174;2023-08-06T02:51:18;100704.09;;;13.00;100.00
53514;BME280;39768;54.148;12.174;2023-08-06T02:55:19;100699.41;;;13.05;100.00
53514;BME280;39768;54.148;12.174;2023-08-06T02:59:23;100697.53;;;12.86;100.00
53514;BME280;39768;54.148;12.174;2023-08-06T03:03:41;100684.25;;;12.83;100.00
53514;BME280;39768;54.148;12.174;2023-08-06T03:07:43;100693.31;;;13.78;100.00
53514;BME280;39768;54.148;12.174;2023-08-06T03:11:52;100686.00;;;13.23;100.00
53514;BME280;39768;54.148;12.174;2023-08-06T03:15:58;100679.28;;;12.94;100.00
53514;BME280;39768;54.148;12.174;2023-08-06T03:20:01;100667.47;;;13.17;100.00
53514;BME280;39768;54.148;12.174;2023-08-06T03:24:04;100669.88;;;13.42;100.00
53514;BME280;39768;54.148;12.174;2023-08-06T03:28:08;100656.03;;;13.51;100.00
53514;BME280;39768;54.148;12.174;2023-08-06T03:32:10;100661.97;;;13.39;100.00
53514;BME280;39768;54.148;12.174;2023-08-06T03:36:14;100656.78;;;13.91;100.00
53514;BME280;39768;54.148;12.174;2023-08-06T03:40:16;100646.69;;;13.96;100.00
53514;BME280;39768;54.148;12.174;2023-08-06T03:44:18;100644.03;;;13.58;100.00
53514;BME280;39768;54.148;12.174;2023-08-06T03:48:20;100648.72;;;13.16;100.00
53514;BME280;39768;54.148;12.174;2023-08-06T03:52:22;100642.69;;;12.92;100.00
53514;BME280;39768;54.148;12.174;2023-08-06T03:56:24;100643.72;;;13.27;100.00
53514;BME280;39768;54.148;12.174;2023-08-06T04:00:25;100642.31;;;13.00;100.00
53514;BME280;39768;54.148;12.174;2023-08-06T04:04:28;100632.63;;;13.16;100.00
53514;BME280;39768;54.148;12.174;2023-08-06T04:08:29;100618.66;;;13.45;100.00
53514;BME280;39768;54.148;12.174;2023-08-06T04:12:31;100619.47;;;12.91;100.00
53514;BME280;39768;54.148;12.174;2023-08-06T04:16:37;100624.28;;;13.22;100.00
53514;BME280;39768;54.148;12.174;2023-08-06T04:20:43;100616.44;;;12.58;100.00
53514;BME280;39768;54.148;12.174;2023-08-06T04:24:45;100602.72;;;12.66;100.00
53514;BME280;39768;54.148;12.174;2023-08-06T04:28:47;100599.34;;;13.00;100.00
53514;BME280;39768;54.148;12.174;2023-08-06T04:32:49;100598.25;;;13.41;100.00
53514;BME280;39768;54.148;12.174;2023-08-06T04:36:52;100596.16;;;12.91;100.00
53514;BME280;39768;54.148;12.174;2023-08-06T04:40:53;100581.50;;;13.17;100.00
53514;BME280;39768;54.148;12.174;2023-08-06T04:44:56;100587.59;;;13.21;100.00
53514;BME280;39768;54.148;12.174;2023-08-06T04:48:58;100585.31;;;13.49;100.00
53514;BME280;39768;54.148;12.174;2023-08-06T04:52:59;100588.81;;;13.32;100.00
53514;BME280;39768;54.148;12.174;2023-08-06T04:57:01;100593.69;;;13.06;100.00
53514;BME280;39768;54.148;12.174;2023-08-06T05:01:02;100584.66;;;13.25;100.00
53514;BME280;39768;54.148;12.174;2023-08-06T05:05:04;100575.81;;;13.42;100.00
53514;BME280;39768;54.148;12.174;2023-08-06T05:09:06;100577.19;;;13.87;100.00
53514;BME280;39768;54.148;12.174;2023-08-06T05:13:08;100574.44;;;13.88;100.00
53514;BME280;39768;54.148;12.174;2023-08-06T05:17:09;100579.16;;;14.69;100.00
53514;BME280;39768;54.148;12.174;2023-08-06T05:21:11;100570.16;;;14.53;100.00
53514;BME280;39768;54.148;12.174;2023-08-06T05:25:13;100565.31;;;14.60;100.00
53514;BME280;39768;54.148;12.174;2023-08-06T05:29:16;100557.50;;;14.88;99.59
53514;BME280;39768;54.148;12.174;2023-08-06T05:33:17;100550.22;;;14.06;100.00
53514;BME280;39768;54.148;12.174;2023-08-06T05:37:19;100537.53;;;14.42;100.00
53514;BME280;39768;54.148;12.174;2023-08-06T05:41:21;100542.50;;;14.67;100.00
53514;BME280;39768;54.148;12.174;2023-08-06T05:45:22;100537.63;;;14.58;100.00
53514;BME280;39768;54.148;12.174;2023-08-06T05:49:24;100549.28;;;14.74;100.00
53514;BME280;39768;54.148;12.174;2023-08-06T05:53:25;100543.25;;;14.53;100.00
53514;BME280;39768;54.148;12.174;2023-08-06T05:57:27;100543.44;;;14.66;100.00
53514;BME280;39768;54.148;12.174;2023-08-06T06:01:28;100545.28;;;14.48;100.00
53514;BME280;39768;54.148;12.174;2023-08-06T06:05:30;100543.72;;;14.77;100.00
53514;BME280;39768;54.148;12.174;2023-08-06T06:09:32;100528.97;;;14.84;100.00
53514;BME280;39768;54.148;12.174;2023-08-06T06:13:33;100537.06;;;15.00;100.00
53514;BME280;39768;54.148;12.174;2023-08-06T06:17:35;100533.78;;;14.62;100.00
53514;BME280;39768;54.148;12.174;2023-08-06T06:21:37;100528.47;;;15.09;100.00
53514;BME280;39768;54.148;12.174;2023-08-06T06:25:43;100520.91;;;15.16;100.00
53514;BME280;39768;54.148;12.174;2023-08-06T06:29:45;100520.13;;;15.14;100.00
53514;BME280;39768;54.148;12.174;2023-08-06T06:33:46;100507.31;;;16.38;94.43
53514;BME280;39768;54.148;12.174;2023-08-06T06:37:48;100506.44;;;15.94;97.81
53514;BME280;39768;54.148;12.174;2023-08-06T06:41:50;100508.34;;;15.77;97.88
53514;BME280;39768;54.148;12.174;2023-08-06T06:45:59;100499.13;;;15.66;98.89
53514;BME280;39768;54.148;12.174;2023-08-06T06:50:01;100493.72;;;15.66;98.87
53514;BME280;39768;54.148;12.174;2023-08-06T06:54:03;100499.50;;;16.76;93.55
53514;BME280;39768;54.148;12.174;2023-08-06T06:58:05;100505.34;;;15.52;98.24
53514;BME280;39768;54.148;12.174;2023-08-06T07:02:06;100512.47;;;15.53;98.46
53514;BME280;39768;54.148;12.174;2023-08-06T07:06:08;100505.28;;;15.98;95.57
53514;BME280;39768;54.148;12.174;2023-08-06T07:10:10;100498.00;;;16.14;95.51
53514;BME280;39768;54.148;12.174;2023-08-06T07:14:11;100488.22;;;16.27;95.48
53514;BME280;39768;54.148;12.174;2023-08-06T07:18:13;100496.44;;;16.10;95.89
53514;BME280;39768;54.148;12.174;2023-08-06T07:22:14;100491.53;;;16.02;95.48
53514;BME280;39768;54.148;12.174;2023-08-06T07:26:16;100496.03;;;16.32;94.59
53514;BME280;39768;54.148;12.174;2023-08-06T07:30:18;100482.13;;;16.24;96.18
53514;BME280;39768;54.148;12.174;2023-08-06T07:34:19;100482.72;;;16.57;92.80
53514;BME280;39768;54.148;12.174;2023-08-06T07:38:21;100484.56;;;16.28;95.10
53514;BME280;39768;54.148;12.174;2023-08-06T07:42:23;100485.75;;;17.89;85.17
53514;BME280;39768;54.148;12.174;2023-08-06T07:46:24;100490.78;;;18.33;79.85
53514;BME280;39768;54.148;12.174;2023-08-06T07:50:26;100490.41;;;17.60;81.89
53514;BME280;39768;54.148;12.174;2023-08-06T07:54:27;100492.84;;;18.29;80.55
53514;BME280;39768;54.148;12.174;2023-08-06T07:58:30;100496.59;;;18.01;83.09
53514;BME280;39768;54.148;12.174;2023-08-06T08:02:33;100492.19;;;18.76;77.56
53514;BME280;39768;54.148;12.174;2023-08-06T08:06:34;100493.16;;;18.37;80.54
53514;BME280;39768;54.148;12.174;2023-08-06T08:10:36;100494.03;;;18.25;77.94
53514;BME280;39768;54.148;12.174;2023-08-06T08:14:39;100495.78;;;18.26;79.43
53514;BME280;39768;54.148;12.174;2023-08-06T08:18:40;100488.16;;;18.82;75.51
53514;BME280;39768;54.148;12.174;2023-08-06T08:22:42;100485.31;;;17.01;86.61
53514;BME280;39768;54.148;12.174;2023-08-06T08:26:44;100480.88;;;16.72;85.29
53514;BME280;39768;54.148;12.174;2023-08-06T08:30:45;100480.81;;;17.68;82.47
53514;BME280;39768;54.148;12.174;2023-08-06T08:34:47;100478.53;;;17.62;84.31
53514;BME280;39768;54.148;12.174;2023-08-06T08:38:49;100473.44;;;18.10;83.03
53514;BME280;39768;54.148;12.174;2023-08-06T08:42:55;100463.16;;;18.66;75.49
53514;BME280;39768;54.148;12.174;2023-08-06T08:46:57;100471.53;;;17.45;79.50
53514;BME280;39768;54.148;12.174;2023-08-06T08:51:00;100471.34;;;17.22;83.68
53514;BME280;39768;54.148;12.174;2023-08-06T08:55:02;100458.38;;;17.00;84.46
53514;BME280;39768;54.148;12.174;2023-08-06T08:59:04;100461.06;;;17.00;82.37
53514;BME280;39768;54.148;12.174;2023-08-06T09:03:06;100452.28;;;16.82;83.36
53514;BME280;39768;54.148;12.174;2023-08-06T09:07:10;100453.00;;;16.71;86.30
53514;BME280;39768;54.148;12.174;2023-08-06T09:11:15;100455.56;;;17.01;83.74
53514;BME280;39768;54.148;12.174;2023-08-06T09:15:17;100446.34;;;18.35;78.70
53514;BME280;39768;54.148;12.174;2023-08-06T09:19:19;100443.41;;;18.00;76.89
53514;BME280;39768;54.148;12.174;2023-08-06T09:23:27;100444.41;;;17.20;83.43
53514;BME280;39768;54.148;12.174;2023-08-06T09:27:29;100444.22;;;17.63;82.08
53514;BME280;39768;54.148;12.174;2023-08-06T09:31:42;100433.41;;;17.63;80.86
53514;BME280;39768;54.148;12.174;2023-08-06T09:35:46;100424.50;;;18.87;78.32
53514;BME280;39768;54.148;12.174;2023-08-06T09:39:48;100426.38;;;19.35;74.80
53514;BME280;39768;54.148;12.174;2023-08-06T09:43:49;100417.22;;;19.24;71.10
53514;BME280;39768;54.148;12.174;2023-08-06T09:47:55;100420.28;;;19.44;68.83
53514;BME280;39768;54.148;12.174;2023-08-06T09:51:57;100410.25;;;18.73;72.32
53514;BME280;39768;54.148;12.174;2023-08-06T09:56:01;100420.84;;;18.76;72.34
53514;BME280;39768;54.148;12.174;2023-08-06T10:00:02;100412.00;;;18.98;72.03
53514;BME280;39768;54.148;12.174;2023-08-06T10:04:15;100403.69;;;18.88;70.17
53514;BME280;39768;54.148;12.174;2023-08-06T10:08:24;100409.28;;;18.98;69.15
53514;BME280;39768;54.148;12.174;2023-08-06T10:12:29;100409.06;;;19.01;68.18
53514;BME280;39768;54.148;12.174;2023-08-06T10:16:32;100403.91;;;19.09;69.40
53514;BME280;39768;54.148;12.174;2023-08-06T10:20:35;100399.13;;;19.12;67.47
53514;BME280;39768;54.148;12.174;2023-08-06T10:24:54;100405.56;;;19.22;66.73
53514;BME280;39768;54.148;12.174;2023-08-06T10:28:56;100397.16;;;19.38;64.14
53514;BME280;39768;54.148;12.174;2023-08-06T10:33:02;100399.22;;;19.23;62.90
53514;BME280;39768;54.148;12.174;2023-08-06T10:37:04;100386.88;;;18.83;63.22
53514;BME280;39768;54.148;12.174;2023-08-06T10:41:06;100388.84;;;19.64;60.29
53514;BME280;39768;54.148;12.174;2023-08-06T10:45:12;100391.66;;;19.51;59.22
53514;BME280;39768;54.148;12.174;2023-08-06T10:49:17;100386.78;;;19.78;59.92
53514;BME280;39768;54.148;12.174;2023-08-06T10:53:21;100380.59;;;19.65;56.82
53514;BME280;39768;54.148;12.174;2023-08-06T10:57:23;100380.38;;;19.68;60.37
53514;BME280;39768;54.148;12.174;2023-08-06T11:01:28;100371.56;;;20.00;59.75
53514;BME280;39768;54.148;12.174;2023-08-06T11:05:30;100375.25;;;19.17;60.28
53514;BME280;39768;54.148;12.174;2023-08-06T11:09:32;100373.97;;;19.34;60.47
53514;BME280;39768;54.148;12.174;2023-08-06T11:13:33;100368.47;;;19.47;60.82
53514;BME280;39768;54.148;12.174;2023-08-06T11:17:35;100357.03;;;19.54;61.78
53514;BME280;39768;54.148;12.174;2023-08-06T11:21:39;100357.84;;;19.90;59.15
53514;BME280;39768;54.148;12.174;2023-08-06T11:25:44;100356.56;;;19.72;58.19
53514;BME280;39768;54.148;12.174;2023-08-06T11:29:46;100361.59;;;20.34;59.51
53514;BME280;39768;54.148;12.174;2023-08-06T11:33:50;100356.00;;;19.90;55.50
53514;BME280;39768;54.148;12.174;2023-08-06T11:37:53;100360.47;;;20.25;56.67
53514;BME280;39768;54.148;12.174;2023-08-06T11:41:54;100351.69;;;19.99;61.04
53514;BME280;39768;54.148;12.174;2023-08-06T11:45:57;100347.31;;;19.74;61.87
53514;BME280;39768;54.148;12.174;2023-08-06T11:49:58;100345.25;;;18.84;67.95
53514;BME280;39768;54.148;12.174;2023-08-06T11:54:00;100336.69;;;19.71;64.24
53514;BME280;39768;54.148;12.174;2023-08-06T11:58:05;100346.28;;;19.53;64.30
53514;BME280;39768;54.148;12.174;2023-08-06T12:02:09;100339.19;;;19.74;63.57
53514;BME280;39768;54.148;12.174;2023-08-06T12:06:11;100339.41;;;19.01;70.05
53514;BME280;39768;54.148;12.174;2023-08-06T12:10:14;100329.00;;;19.43;69.05
53514;BME280;39768;54.148;12.174;2023-08-06T12:14:16;100320.16;;;18.69;66.45
53514;BME280;39768;54.148;12.174;2023-08-06T12:18:17;100316.19;;;19.21;66.05
53514;BME280;39768;54.148;12.174;2023-08-06T12:22:20;100308.03;;;19.21;64.65
53514;BME280;39768;54.148;12.174;2023-08-06T12:26:24;100303.56;;;18.74;65.36
53514;BME280;39768;54.148;12.174;2023-08-06T12:30:26;100308.38;;;19.29;63.65
53514;BME280;39768;54.148;12.174;2023-08-06T12:34:28;100301.09;;;19.41;68.61
53514;BME280;39768;54.148;12.174;2023-08-06T12:38:43;100307.06;;;19.57;69.13
53514;BME280;39768;54.148;12.174;2023-08-06T12:42:45;100303.56;;;19.33;71.45
53514;BME280;39768;54.148;12.174;2023-08-06T12:46:47;100298.94;;;19.22;69.24
53514;BME280;39768;54.148;12.174;2023-08-06T12:50:49;100298.06;;;18.63;69.25
53514;BME280;39768;54.148;12.174;2023-08-06T12:54:51;100295.13;;;18.29;69.87
53514;BME280;39768;54.148;12.174;2023-08-06T12:58:52;100286.00;;;18.30;68.84
53514;BME280;39768;54.148;12.174;2023-08-06T13:02:54;100282.31;;;18.31;72.59
53514;BME280;39768;54.148;12.174;2023-08-06T13:06:55;100276.63;;;18.23;67.45
53514;BME280;39768;54.148;12.174;2023-08-06T13:10:57;100283.78;;;18.48;67.36
53514;BME280;39768;54.148;12.174;2023-08-06T13:14:59;100283.06;;;18.33;68.01
53514;BME280;39768;54.148;12.174;2023-08-06T13:19:00;100281.22;;;18.34;69.29
53514;BME280;39768;54.148;12.174;2023-08-06T13:23:02;100276.22;;;18.53;69.16
53514;BME280;39768;54.148;12.174;2023-08-06T13:27:04;100279.81;;;18.41;67.94
53514;BME280;39768;54.148;12.174;2023-08-06T13:31:05;100276.19;;;18.16;70.70
53514;BME280;39768;54.148;12.174;2023-08-06T13:35:07;100280.22;;;18.11;70.42
53514;BME280;39768;54.148;12.174;2023-08-06T13:39:09;100273.16;;;18.45;62.34
53514;BME280;39768;54.148;12.174;2023-08-06T13:43:10;100276.66;;;18.10;67.16
53514;BME280;39768;54.148;12.174;2023-08-06T13:47:12;100268.72;;;18.20;67.44
53514;BME280;39768;54.148;12.174;2023-08-06T13:51:13;100262.06;;;17.24;69.01
53514;BME280;39768;54.148;12.174;2023-08-06T13:55:15;100263.63;;;18.15;63.38
53514;BME280;39768;54.148;12.174;2023-08-06T13:59:18;100262.47;;;18.07;65.81
53514;BME280;39768;54.148;12.174;2023-08-06T14:03:21;100262.47;;;18.07;66.02
53514;BME280;39768;54.148;12.174;2023-08-06T14:07:22;100257.22;;;18.16;70.23
53514;BME280;39768;54.148;12.174;2023-08-06T14:11:24;100255.31;;;18.06;73.71
53514;BME280;39768;54.148;12.174;2023-08-06T14:15:26;100264.56;;;17.40;81.32
53514;BME280;39768;54.148;12.174;2023-08-06T14:19:27;100268.03;;;17.67;79.33
53514;BME280;39768;54.148;12.174;2023-08-06T14:23:30;100276.22;;;17.28;81.85
53514;BME280;39768;54.148;12.174;2023-08-06T14:27:32;100280.78;;;17.27;81.16
53514;BME280;39768;54.148;12.174;2023-08-06T14:31:33;100275.50;;;17.26;80.31
53514;BME280;39768;54.148;12.174;2023-08-06T14:35:35;100273.44;;;17.93;77.65
53514;BME280;39768;54.148;12.174;2023-08-06T14:39:36;100286.00;;;17.68;79.50
53514;BME280;39768;54.148;12.174;2023-08-06T14:43:38;100285.28;;;17.14;81.33
53514;BME280;39768;54.148;12.174;2023-08-06T14:47:40;100288.16;;;16.98;81.97
53514;BME280;39768;54.148;12.174;2023-08-06T14:51:41;100287.28;;;17.63;77.36
53514;BME280;39768;54.148;12.174;2023-08-06T14:55:43;100283.28;;;17.43;75.14
53514;BME280;39768;54.148;12.174;2023-08-06T14:59:44;100288.16;;;16.98;76.75
53514;BME280;39768;54.148;12.174;2023-08-06T15:03:46;100289.34;;;16.67;81.32
53514;BME280;39768;54.148;12.174;2023-08-06T15:07:48;100285.28;;;16.48;82.39
53514;BME280;39768;54.148;12.174;2023-08-06T15:11:50;100294.75;;;16.67;78.98
53514;BME280;39768;54.148;12.174;2023-08-06T15:15:52;100294.94;;;16.52;80.52
53514;BME280;39768;54.148;12.174;2023-08-06T15:19:53;100291.72;;;16.99;78.75
53514;BME280;39768;54.148;12.174;2023-08-06T15:23:55;100292.69;;;16.98;76.74
53514;BME280;39768;54.148;12.174;2023-08-06T15:27:56;100293.66;;;15.73;85.72
53514;BME280;39768;54.148;12.174;2023-08-06T15:31:58;100284.59;;;16.03;89.93
53514;BME280;39768;54.148;12.174;2023-08-06T15:35:59;100291.09;;;16.41;85.60
53514;BME280;39768;54.148;12.174;2023-08-06T15:40:01;100292.47;;;16.34;86.08
53514;BME280;39768;54.148;12.174;2023-08-06T15:44:03;100299.00;;;16.71;84.33
53514;BME280;39768;54.148;12.174;2023-08-06T15:48:06;100295.31;;;15.62;89.84
53514;BME280;39768;54.148;12.174;2023-08-06T15:52:10;100296.34;;;16.57;83.17
53514;BME280;39768;54.148;12.174;2023-08-06T15:56:12;100305.56;;;16.40;84.54
53514;BME280;39768;54.148;12.174;2023-08-06T16:00:13;100305.94;;;16.75;79.50
53514;BME280;39768;54.148;12.174;2023-08-06T16:04:16;100302.69;;;16.83;78.08
53514;BME280;39768;54.148;12.174;2023-08-06T16:08:18;100305.25;;;16.72;77.40
53514;BME280;39768;54.148;12.174;2023-08-06T16:12:22;100301.41;;;17.15;75.48
53514;BME280;39768;54.148;12.174;2023-08-06T16:16:23;100297.84;;;17.15;76.94
53514;BME280;39768;54.148;12.174;2023-08-06T16:20:26;100295.03;;;17.04;76.20
53514;BME280;39768;54.148;12.174;2023-08-06T16:24:27;100289.19;;;16.83;76.48
53514;BME280;39768;54.148;12.174;2023-08-06T16:28:29;100284.56;;;16.85;76.76
53514;BME280;39768;54.148;12.174;2023-08-06T16:32:34;100287.72;;;16.38;80.66
53514;BME280;39768;54.148;12.174;2023-08-06T16:36:39;100279.34;;;16.28;83.77
53514;BME280;39768;54.148;12.174;2023-08-06T16:40:41;100280.63;;;15.94;87.62
53514;BME280;39768;54.148;12.174;2023-08-06T16:44:43;100278.69;;;15.96;89.27
53514;BME280;39768;54.148;12.174;2023-08-06T16:48:46;100278.41;;;16.29;87.83
53514;BME280;39768;54.148;12.174;2023-08-06T16:52:48;100265.69;;;16.71;85.24
53514;BME280;39768;54.148;12.174;2023-08-06T16:56:49;100263.53;;;16.08;86.63
53514;BME280;39768;54.148;12.174;2023-08-06T17:00:51;100260.72;;;15.68;88.86
53514;BME280;39768;54.148;12.174;2023-08-06T17:04:54;100255.22;;;15.84;88.76
53514;BME280;39768;54.148;12.174;2023-08-06T17:08:55;100249.34;;;15.77;90.50
53514;BME280;39768;54.148;12.174;2023-08-06T17:12:57;100247.50;;;15.50;91.00
53514;BME280;39768;54.148;12.174;2023-08-06T17:17:14;100252.72;;;15.53;92.58
53514;BME280;39768;54.148;12.174;2023-08-06T17:21:16;100246.84;;;15.46;93.57
53514;BME280;39768;54.148;12.174;2023-08-06T17:25:18;100251.47;;;15.44;94.27
53514;BME280;39768;54.148;12.174;2023-08-06T17:29:22;100238.53;;;15.63;93.56
53514;BME280;39768;54.148;12.174;2023-08-06T17:33:24;100236.34;;;15.56;94.34
53514;BME280;39768;54.148;12.174;2023-08-06T17:37:26;100233.06;;;15.51;91.64
53514;BME280;39768;54.148;12.174;2023-08-06T17:41:27;100232.88;;;15.54;92.06
53514;BME280;39768;54.148;12.174;2023-08-06T17:45:30;100236.22;;;15.86;86.89
53514;BME280;39768;54.148;12.174;2023-08-06T17:49:32;100228.16;;;15.57;81.90
53514;BME280;39768;54.148;12.174;2023-08-06T17:53:34;100223.81;;;15.40;80.65
53514;BME280;39768;54.148;12.174;2023-08-06T17:57:35;100224.78;;;15.54;80.48
53514;BME280;39768;54.148;12.174;2023-08-06T18:01:37;100221.97;;;15.69;79.77
53514;BME280;39768;54.148;12.174;2023-08-06T18:05:38;100220.53;;;15.64;82.23
53514;BME280;39768;54.148;12.174;2023-08-06T18:09:40;100215.50;;;15.86;82.46
53514;BME280;39768;54.148;12.174;2023-08-06T18:13:42;100215.06;;;15.51;82.52
53514;BME280;39768;54.148;12.174;2023-08-06T18:17:44;100202.53;;;15.50;85.91
53514;BME280;39768;54.148;12.174;2023-08-06T18:21:47;100201.75;;;15.76;87.13
53514;BME280;39768;54.148;12.174;2023-08-06T18:25:49;100195.63;;;15.60;83.35
53514;BME280;39768;54.148;12.174;2023-08-06T18:29:51;100196.19;;;15.51;79.39
53514;BME280;39768;54.148;12.174;2023-08-06T18:33:52;100206.47;;;15.30;83.90
53514;BME280;39768;54.148;12.174;2023-08-06T18:37:54;100198.31;;;15.46;79.49
53514;BME280;39768;54.148;12.174;2023-08-06T18:41:57;100194.50;;;15.20;74.85
53514;BME280;39768;54.148;12.174;2023-08-06T18:45:59;100186.34;;;15.36;75.95
53514;BME280;39768;54.148;12.174;2023-08-06T18:50:01;100187.88;;;15.12;74.22
53514;BME280;39768;54.148;12.174;2023-08-06T18:54:02;100191.31;;;14.99;74.63
53514;BME280;39768;54.148;12.174;2023-08-06T18:58:04;100175.28;;;15.26;72.44
53514;BME280;39768;54.148;12.174;2023-08-06T19:02:06;100176.50;;;15.21;74.50
53514;BME280;39768;54.148;12.174;2023-08-06T19:06:09;100181.75;;;15.38;75.64
53514;BME280;39768;54.148;12.174;2023-08-06T19:10:11;100177.47;;;15.34;77.77
53514;BME280;39768;54.148;12.174;2023-08-06T19:14:12;100172.25;;;14.88;76.59
53514;BME280;39768;54.148;12.174;2023-08-06T19:18:14;100175.31;;;14.82;76.18
53514;BME280;39768;54.148;12.174;2023-08-06T19:22:16;100179.59;;;15.00;75.99
53514;BME280;39768;54.148;12.174;2023-08-06T19:26:18;100185.28;;;14.66;78.82
53514;BME280;39768;54.148;12.174;2023-08-06T19:30:19;100179.97;;;15.08;75.87
53514;BME280;39768;54.148;12.174;2023-08-06T19:34:21;100174.69;;;14.63;76.78
53514;BME280;39768;54.148;12.174;2023-08-06T19:38:24;100168.59;;;14.89;76.30
53514;BME280;39768;54.148;12.174;2023-08-06T19:42:25;100165.72;;;14.92;75.44
53514;BME280;39768;54.148;12.174;2023-08-06T19:46:27;100164.47;;;14.98;77.99
53514;BME280;39768;54.148;12.174;2023-08-06T19:50:28;100158.59;;;14.91;79.27
53514;BME280;39768;54.148;12.174;2023-08-06T19:54:30;100161.66;;;14.85;81.10
53514;BME280;39768;54.148;12.174;2023-08-06T19:58:32;100154.34;;;14.73;79.25
53514;BME280;39768;54.148;12.174;2023-08-06T20:02:35;100158.53;;;14.63;78.57
53514;BME280;39768;54.148;12.174;2023-08-06T20:06:37;100154.47;;;14.86;80.58
53514;BME280;39768;54.148;12.174;2023-08-06T20:10:39;100152.41;;;14.89;82.25
53514;BME280;39768;54.148;12.174;2023-08-06T20:14:41;100155.81;;;15.07;84.20
53514;BME280;39768;54.148;12.174;2023-08-06T20:18:42;100147.63;;;14.94;84.73
53514;BME280;39768;54.148;12.174;2023-08-06T20:22:44;100145.22;;;15.04;85.71
53514;BME280;39768;54.148;12.174;2023-08-06T20:26:45;100147.03;;;14.89;86.46
53514;BME280;39768;54.148;12.174;2023-08-06T20:30:47;100145.38;;;14.58;89.62
53514;BME280;39768;54.148;12.174;2023-08-06T20:34:49;100146.91;;;14.17;95.44
53514;BME280;39768;54.148;12.174;2023-08-06T20:38:50;100154.09;;;14.16;98.88
53514;BME280;39768;54.148;12.174;2023-08-06T20:42:52;100141.44;;;14.18;100.00
53514;BME280;39768;54.148;12.174;2023-08-06T20:46:53;100138.38;;;13.94;100.00
53514;BME280;39768;54.148;12.174;2023-08-06T20:50:55;100146.53;;;13.77;100.00